createdAt,value
2022-09-01T00:02:44.442Z,100761.92
2022-09-01T00:07:45.896Z,100761.43
2022-09-01T00:12:47.101Z,100758.24
2022-09-01T00:17:48.411Z,100753.55
2022-09-01T00:22:50.176Z,100755.05
2022-09-01T00:27:51.444Z,100756.08
2022-09-01T00:32:52.594Z,100749.48
2022-09-01T00:37:53.631Z,100746.24
2022-09-01T00:42:55.145Z,100743.27
2022-09-01T00:47:56.291Z,100745.88
2022-09-01T00:52:57.794Z,100740.86
2022-09-01T00:58:02.594Z,100738.55
2022-09-01T01:03:03.873Z,100741.17
2022-09-01T01:08:07.431Z,100740.73
2022-09-01T01:13:13.165Z,100744.39
2022-09-01T01:18:18.836Z,100738.29
2022-09-01T01:23:36.309Z,100734.34
2022-09-01T01:28:40.344Z,100727.17
2022-09-01T01:33:47.047Z,100729.33
2022-09-01T01:38:49.525Z,100729.95
2022-09-01T01:43:50.794Z,100727.63
2022-09-01T01:48:52.982Z,100731.11
2022-09-01T01:53:55.084Z,100725.04
2022-09-01T01:58:56.970Z,100715.82
2022-09-01T02:04:00.324Z,100704.94
2022-09-01T02:09:03.164Z,100710.49
2022-09-01T02:14:06.531Z,100710.21
2022-09-01T02:19:11.444Z,100706.57
2022-09-01T02:24:12.821Z,100706.72
2022-09-01T02:29:20.463Z,100712.92
2022-09-01T02:34:23.818Z,100718.40
2022-09-01T02:39:32.761Z,100727.52
2022-09-01T02:44:36.257Z,100731.80
2022-09-01T02:49:42.278Z,100727.98
2022-09-01T02:54:45.104Z,100724.56
2022-09-01T02:59:46.707Z,100716.80
2022-09-01T03:04:53.502Z,100708.48
2022-09-01T03:09:54.792Z,100702.88
2022-09-01T03:14:56.167Z,100692.28
2022-09-01T03:19:58.940Z,100693.86
2022-09-01T03:25:00.104Z,100690.70
2022-09-01T03:30:01.284Z,100682.24
2022-09-01T03:35:03.536Z,100680.02
2022-09-01T03:40:09.449Z,100692.33
2022-09-01T03:45:15.413Z,100694.02
2022-09-01T03:50:19.967Z,100689.66
2022-09-01T03:55:29.214Z,100687.26
2022-09-01T04:00:31.539Z,100687.20
2022-09-01T04:05:37.649Z,100693.77
2022-09-01T04:10:54.481Z,100692.25
2022-09-01T04:15:57.810Z,100687.50
2022-09-01T04:20:59.127Z,100691.33
2022-09-01T04:26:23.219Z,100702.63
2022-09-01T04:31:24.438Z,100706.64
2022-09-01T04:36:30.938Z,100713.68
2022-09-01T04:41:32.707Z,100713.19
2022-09-01T04:46:40.331Z,100702.55
2022-09-01T04:51:44.060Z,100696.13
2022-09-01T04:56:51.857Z,100696.46
2022-09-01T05:01:54.851Z,100697.95
2022-09-01T05:07:00.357Z,100695.33
2022-09-01T05:12:10.316Z,100705.16
2022-09-01T05:17:16.482Z,100716.48
2022-09-01T05:22:22.517Z,100728.29
2022-09-01T05:27:25.073Z,100735.45
2022-09-01T05:32:26.758Z,100727.33
2022-09-01T05:37:29.002Z,100722.02
2022-09-01T05:42:30.159Z,100716.80
2022-09-01T05:47:35.898Z,100719.29
2022-09-01T05:52:38.629Z,100714.83
2022-09-01T05:57:41.203Z,100717.73
2022-09-01T06:02:43.567Z,100724.04
2022-09-01T06:07:44.872Z,100722.20
2022-09-01T06:12:48.732Z,100718.38
2022-09-01T06:17:50.175Z,100720.91
2022-09-01T06:22:52.086Z,100727.61
2022-09-01T06:27:53.353Z,100727.03
2022-09-01T06:32:55.458Z,100728.48
2022-09-01T06:37:57.878Z,100730.88
2022-09-01T06:43:01.688Z,100727.61
2022-09-01T06:48:03.718Z,100731.08
2022-09-01T06:58:31.236Z,100746.92
2022-09-01T07:03:33.314Z,100749.34
2022-09-01T07:14:18.491Z,100756.57
2022-09-01T07:19:19.735Z,100751.86
2022-09-01T07:24:21.247Z,100752.05
2022-09-01T07:29:24.960Z,100759.48
2022-09-01T07:34:46.502Z,100766.17
2022-09-01T07:39:50.271Z,100769.13
2022-09-01T07:42:30.043Z,100751.34
2022-09-01T07:44:53.271Z,100771.73
2022-09-01T07:55:16.844Z,100775.05
2022-09-01T08:00:21.348Z,100772.20
2022-09-01T08:05:26.094Z,100772.59
2022-09-01T08:10:27.845Z,100776.00
2022-09-01T08:20:50.244Z,100780.55
2022-09-01T08:25:52.418Z,100780.09
2022-09-01T08:30:54.788Z,100780.77
2022-09-01T08:35:56.611Z,100779.48
2022-09-01T08:40:59.588Z,100787.25
2022-09-01T08:46:12.521Z,100786.86
2022-09-01T08:51:41.734Z,100789.00
2022-09-01T08:56:43.221Z,100784.73
2022-09-01T09:02:05.182Z,100781.67
2022-09-01T09:07:32.965Z,100774.96
2022-09-01T09:13:02.440Z,100769.36
2022-09-01T09:18:39.076Z,100770.45
2022-09-01T09:23:47.466Z,100768.90
2022-09-01T09:28:49.863Z,100761.70
2022-09-01T09:33:54.064Z,100763.45
2022-09-01T09:39:11.509Z,100763.52
2022-09-01T09:44:22.848Z,100764.17
2022-09-01T09:49:37.003Z,100766.41
2022-09-01T09:55:04.931Z,100765.96
2022-09-01T10:00:18.164Z,100756.98
2022-09-01T10:05:44.646Z,100755.60
2022-09-01T10:10:57.702Z,100764.94
2022-09-01T10:16:05.397Z,100763.64
2022-09-01T10:21:09.622Z,100762.23
2022-09-01T10:26:24.320Z,100759.27
2022-09-01T10:31:32.101Z,100764.67
2022-09-01T10:36:37.385Z,100762.89
2022-09-01T10:42:00.008Z,100764.77
2022-09-01T10:47:29.650Z,100766.85
2022-09-01T10:52:54.234Z,100770.20
2022-09-01T11:03:57.125Z,100758.17
2022-09-01T11:09:23.584Z,100755.25
2022-09-01T11:14:26.170Z,100749.61
2022-09-01T11:19:34.390Z,100751.36
2022-09-01T11:24:41.312Z,100751.95
2022-09-01T11:29:54.684Z,100759.04
2022-09-01T11:34:59.402Z,100757.64
2022-09-01T11:40:07.556Z,100751.66
2022-09-01T11:45:20.781Z,100744.09
2022-09-01T11:50:23.160Z,100743.71
2022-09-01T11:55:30.723Z,100738.78
2022-09-01T12:00:38.217Z,100748.12
2022-09-01T12:05:39.837Z,100744.59
2022-09-01T12:10:43.398Z,100743.89
2022-09-01T12:16:16.477Z,100744.60
2022-09-01T12:21:28.921Z,100751.84
2022-09-01T12:26:30.235Z,100759.13
2022-09-01T12:31:31.568Z,100758.68
2022-09-01T12:36:36.627Z,100751.20
2022-09-01T12:41:39.543Z,100752.23
2022-09-01T12:46:44.170Z,100743.10
2022-09-01T12:51:50.208Z,100748.57
2022-09-01T12:56:51.458Z,100747.91
2022-09-01T13:01:53.211Z,100756.77
2022-09-01T13:06:59.810Z,100754.32
2022-09-01T13:12:20.692Z,100750.74
2022-09-01T13:17:23.969Z,100746.55
2022-09-01T13:22:25.517Z,100746.80
2022-09-01T13:27:27.685Z,100745.35
2022-09-01T13:32:28.878Z,100744.23
2022-09-01T13:37:30.195Z,100741.71
2022-09-01T13:42:31.321Z,100747.98
2022-09-01T13:47:32.531Z,100746.98
2022-09-01T13:52:34.429Z,100756.26
2022-09-01T13:57:38.361Z,100754.66
2022-09-01T14:02:42.185Z,100751.26
2022-09-01T14:07:43.676Z,100753.08
2022-09-01T14:12:46.108Z,100755.52
2022-09-01T14:17:49.963Z,100754.05
2022-09-01T14:22:51.671Z,100749.92
2022-09-01T14:27:52.854Z,100742.94
2022-09-01T14:32:54.546Z,100743.13
2022-09-01T14:37:55.811Z,100747.86
2022-09-01T14:42:56.975Z,100749.85
2022-09-01T14:48:00.255Z,100749.29
2022-09-01T14:53:02.824Z,100749.95
2022-09-01T14:58:04.750Z,100748.62
2022-09-01T15:03:05.961Z,100745.27
2022-09-01T15:08:08.829Z,100751.59
2022-09-01T15:13:10.526Z,100748.64
2022-09-01T15:18:12.465Z,100745.42
2022-09-01T15:23:20.446Z,100741.71
2022-09-01T15:28:22.082Z,100736.53
2022-09-01T15:33:24.166Z,100735.65
2022-09-01T15:38:30.777Z,100737.48
2022-09-01T15:43:33.549Z,100731.74
2022-09-01T15:48:34.837Z,100732.38
2022-09-01T15:53:36.396Z,100733.46
2022-09-01T15:58:57.553Z,100740.46
2022-09-01T16:04:00.559Z,100734.52
2022-09-01T16:09:05.822Z,100737.43
2022-09-01T16:14:07.489Z,100734.70
2022-09-01T16:19:47.528Z,100735.31
2022-09-01T16:24:55.012Z,100741.84
2022-09-01T16:30:01.531Z,100748.09
2022-09-01T16:35:03.814Z,100750.67
2022-09-01T16:40:30.338Z,100745.52
2022-09-01T16:46:10.693Z,100750.64
2022-09-01T16:51:31.820Z,100749.36
2022-09-01T16:56:57.093Z,100752.27
2022-09-01T17:02:23.740Z,100757.92
2022-09-01T17:07:42.194Z,100760.73
2022-09-01T17:12:55.874Z,100762.73
2022-09-01T17:18:22.915Z,100767.05
2022-09-01T17:23:37.332Z,100769.55
2022-09-01T17:28:45.139Z,100774.45
2022-09-01T17:34:25.549Z,100778.23
2022-09-01T17:39:40.299Z,100782.14
2022-09-01T17:44:55.290Z,100779.83
2022-09-01T17:50:15.559Z,100783.44
2022-09-01T17:55:41.922Z,100790.10
2022-09-01T18:00:57.592Z,100799.33
2022-09-01T18:06:05.318Z,100798.98
2022-09-01T18:11:39.518Z,100801.73
2022-09-01T18:16:55.434Z,100808.54
2022-09-01T18:22:00.485Z,100807.37
2022-09-01T18:27:02.797Z,100810.39
2022-09-01T18:32:35.972Z,100807.04
2022-09-01T18:37:57.327Z,100807.92
2022-09-01T18:43:04.252Z,100817.63
2022-09-01T18:48:11.534Z,100824.60
2022-09-01T18:53:37.690Z,100830.38
2022-09-01T18:59:16.861Z,100834.91
2022-09-01T19:04:35.629Z,100835.04
2022-09-01T19:09:48.774Z,100835.09
2022-09-01T19:15:15.235Z,100830.02
2022-09-01T19:20:25.954Z,100833.85
2022-09-01T19:25:35.969Z,100835.02
2022-09-01T19:31:03.486Z,100837.04
2022-09-01T19:36:10.452Z,100839.55
2022-09-01T19:41:18.147Z,100844.39
2022-09-01T19:46:35.976Z,100840.80
2022-09-01T19:51:45.478Z,100841.30
2022-09-01T19:57:10.264Z,100841.77
2022-09-01T20:02:28.280Z,100836.92
2022-09-01T20:07:29.748Z,100841.04
2022-09-01T20:12:40.305Z,100837.33
2022-09-01T20:18:03.509Z,100839.55
2022-09-01T20:23:15.552Z,100839.79
2022-09-01T20:28:54.681Z,100844.82
2022-09-01T20:34:19.410Z,100852.38
2022-09-01T20:40:05.088Z,100860.34
2022-09-01T20:45:11.825Z,100861.41
2022-09-01T20:50:13.341Z,100863.56
2022-09-01T20:55:36.555Z,100866.34
2022-09-01T21:01:22.945Z,100865.70
2022-09-01T21:06:43.049Z,100879.05
2022-09-01T21:11:53.183Z,100876.85
2022-09-01T21:17:31.970Z,100874.84
2022-09-01T21:22:33.472Z,100874.77
2022-09-01T21:27:50.452Z,100870.98
2022-09-01T21:32:53.073Z,100866.98
2022-09-01T21:37:54.330Z,100869.27
2022-09-01T21:43:17.420Z,100872.08
2022-09-01T21:48:18.987Z,100871.76
2022-09-01T21:53:20.280Z,100875.17
2022-09-01T21:58:21.591Z,100881.72
2022-09-01T22:03:23.374Z,100884.41
2022-09-01T22:08:25.212Z,100884.61
2022-09-01T22:13:26.600Z,100882.95
2022-09-01T22:18:27.838Z,100879.05
2022-09-01T22:23:28.905Z,100880.56
2022-09-01T22:28:30.586Z,100881.24
2022-09-01T22:33:31.892Z,100879.66
2022-09-01T22:38:34.005Z,100882.77
2022-09-01T22:43:35.224Z,100885.23
2022-09-01T22:48:36.460Z,100878.62
2022-09-01T22:53:38.412Z,100873.99
2022-09-01T22:58:41.028Z,100872.98
2022-09-01T23:03:43.519Z,100873.26
2022-09-01T23:08:44.992Z,100873.30
2022-09-01T23:13:46.498Z,100874.52
2022-09-01T23:18:48.946Z,100874.33
2022-09-01T23:23:55.166Z,100876.70
2022-09-01T23:29:00.853Z,100871.39
2022-09-01T23:34:05.233Z,100867.08
2022-09-01T23:39:06.830Z,100873.70
2022-09-01T23:44:10.107Z,100880.08
2022-09-01T23:49:13.083Z,100881.31
2022-09-01T23:54:14.815Z,100875.24
2022-09-01T23:59:15.990Z,100870.98
